createdAt,value
2018-03-29T00:00:20.784Z,94.80
2018-03-29T00:02:48.882Z,95.10
2018-03-29T00:05:17.033Z,94.60
2018-03-29T00:07:45.136Z,94.90
2018-03-29T00:10:14.110Z,94.50
2018-03-29T00:12:42.975Z,93.60
2018-03-29T00:15:11.103Z,93.60
2018-03-29T00:17:39.238Z,93.40
2018-03-29T00:20:07.914Z,93.60
2018-03-29T00:22:36.011Z,93.00
2018-03-29T00:25:04.471Z,92.50
2018-03-29T00:27:32.575Z,92.40
2018-03-29T00:30:00.709Z,92.20
2018-03-29T00:32:28.828Z,91.80
2018-03-29T00:34:56.957Z,91.60
2018-03-29T00:37:25.046Z,91.70
2018-03-29T00:39:53.936Z,91.70
2018-03-29T00:42:22.801Z,91.50
2018-03-29T00:44:50.934Z,91.50
2018-03-29T00:47:19.036Z,91.60
2018-03-29T00:49:47.168Z,91.70
2018-03-29T00:52:15.291Z,92.20
2018-03-29T00:54:43.406Z,92.10
2018-03-29T00:57:11.515Z,91.50
2018-03-29T00:59:39.648Z,91.40
2018-03-29T01:02:08.523Z,91.60
2018-03-29T01:04:36.649Z,91.60
2018-03-29T01:07:04.751Z,91.50
2018-03-29T01:09:32.873Z,91.80
2018-03-29T01:12:00.959Z,91.80
2018-03-29T01:14:29.062Z,91.80
2018-03-29T01:16:57.180Z,91.40
2018-03-29T01:19:25.360Z,91.30
2018-03-29T01:21:53.423Z,91.30
2018-03-29T01:24:21.536Z,91.60
2018-03-29T01:26:49.672Z,91.80
2018-03-29T01:29:17.778Z,91.90
2018-03-29T01:31:45.911Z,91.60
2018-03-29T01:34:14.034Z,91.60
2018-03-29T01:36:42.154Z,91.40
2018-03-29T01:39:11.028Z,92.00
2018-03-29T01:41:39.924Z,92.30
2018-03-29T01:44:08.809Z,92.00
2018-03-29T01:46:36.927Z,92.00
2018-03-29T01:49:05.058Z,92.10
2018-03-29T01:51:33.938Z,92.40
2018-03-29T01:54:02.044Z,92.40
2018-03-29T01:56:30.932Z,92.20
2018-03-29T01:58:59.805Z,92.30
2018-03-29T02:01:28.696Z,91.90
2018-03-29T02:03:57.556Z,91.80
2018-03-29T02:06:25.670Z,91.80
2018-03-29T02:08:54.541Z,91.40
2018-03-29T02:11:22.656Z,91.40
2018-03-29T02:13:50.753Z,91.50
2018-03-29T02:16:18.880Z,91.30
2018-03-29T02:18:47.751Z,91.50
2018-03-29T02:21:15.866Z,91.50
2018-03-29T02:23:43.964Z,91.90
2018-03-29T02:26:12.079Z,91.90
2018-03-29T02:28:40.949Z,91.50
2018-03-29T02:31:09.071Z,91.50
2018-03-29T02:33:37.165Z,91.40
2018-03-29T02:36:05.287Z,91.80
2018-03-29T02:38:34.150Z,92.00
2018-03-29T02:41:02.262Z,92.00
2018-03-29T02:43:30.370Z,92.40
2018-03-29T02:45:58.501Z,92.20
2018-03-29T02:48:27.364Z,92.10
2018-03-29T02:50:55.487Z,92.10
2018-03-29T02:53:23.630Z,92.60
2018-03-29T02:55:52.518Z,91.80
2018-03-29T02:58:20.619Z,91.80
2018-03-29T03:00:48.738Z,91.60
2018-03-29T03:03:16.836Z,91.80
2018-03-29T03:05:44.966Z,91.50
2018-03-29T03:08:13.074Z,91.60
2018-03-29T03:10:41.195Z,91.10
2018-03-29T03:13:09.296Z,91.50
2018-03-29T03:15:37.429Z,92.00
2018-03-29T03:18:06.358Z,91.50
2018-03-29T03:20:34.482Z,91.50
2018-03-29T03:23:03.339Z,91.60
2018-03-29T03:25:31.477Z,91.50
2018-03-29T03:27:59.584Z,92.10
2018-03-29T03:30:27.717Z,91.80
2018-03-29T03:32:55.854Z,91.70
2018-03-29T03:35:24.737Z,91.70
2018-03-29T03:37:53.609Z,92.10
2018-03-29T03:40:21.732Z,92.10
2018-03-29T03:42:49.837Z,92.10
2018-03-29T03:45:17.990Z,91.90
2018-03-29T03:47:46.088Z,91.70
2018-03-29T03:50:14.192Z,91.80
2018-03-29T03:52:42.310Z,92.00
2018-03-29T03:55:10.428Z,91.80
2018-03-29T03:57:38.553Z,91.60
2018-03-29T04:00:06.664Z,91.70
2018-03-29T04:02:34.781Z,92.00
2018-03-29T04:05:02.879Z,92.30
2018-03-29T04:07:30.995Z,91.80
2018-03-29T04:09:59.887Z,91.70
2018-03-29T04:12:27.999Z,91.70
2018-03-29T04:14:56.090Z,92.10
2018-03-29T04:17:24.209Z,91.40
2018-03-29T04:19:52.306Z,91.60
2018-03-29T04:22:20.429Z,91.60
2018-03-29T04:24:48.528Z,92.00
2018-03-29T04:27:16.656Z,92.30
2018-03-29T04:29:44.764Z,92.00
2018-03-29T04:32:12.898Z,92.20
2018-03-29T04:34:40.992Z,92.10
2018-03-29T04:37:09.111Z,91.70
2018-03-29T04:39:37.967Z,91.30
2018-03-29T04:42:06.098Z,91.30
2018-03-29T04:44:34.197Z,91.40
2018-03-29T04:47:02.324Z,91.40
2018-03-29T04:49:30.423Z,91.60
2018-03-29T04:51:58.551Z,91.80
2018-03-29T04:54:27.406Z,91.70
2018-03-29T04:56:55.533Z,91.70
2018-03-29T04:59:24.395Z,91.80
2018-03-29T05:01:52.527Z,91.80
2018-03-29T05:04:20.614Z,91.90
2018-03-29T05:06:48.744Z,91.70
2018-03-29T05:09:16.849Z,91.40
2018-03-29T05:11:44.974Z,91.30
2018-03-29T05:14:13.848Z,91.70
2018-03-29T05:16:41.974Z,91.70
2018-03-29T05:19:10.070Z,91.20
2018-03-29T05:21:38.235Z,91.20
2018-03-29T05:24:06.350Z,91.40
2018-03-29T05:26:39.770Z,91.20
2018-03-29T05:29:07.933Z,91.20
2018-03-29T05:31:37.282Z,90.60
2018-03-29T05:34:05.400Z,90.60
2018-03-29T05:36:34.284Z,90.90
2018-03-29T05:39:02.389Z,90.90
2018-03-29T05:41:30.528Z,90.70
2018-03-29T05:43:58.723Z,90.60
2018-03-29T05:46:26.849Z,90.90
2018-03-29T05:48:54.949Z,91.00
2018-03-29T05:51:23.145Z,90.60
2018-03-29T05:53:51.253Z,90.50
2018-03-29T05:56:19.375Z,90.30
2018-03-29T05:58:48.285Z,89.10
2018-03-29T06:01:16.444Z,89.10
2018-03-29T06:03:45.319Z,89.30
2018-03-29T06:06:13.622Z,89.30
2018-03-29T06:08:42.642Z,89.80
2018-03-29T06:11:10.763Z,89.80
2018-03-29T06:13:40.644Z,87.90
2018-03-29T06:16:08.785Z,88.00
2018-03-29T06:18:36.925Z,87.70
2018-03-29T06:21:05.341Z,87.60
2018-03-29T06:23:34.210Z,88.90
2018-03-29T06:26:02.299Z,88.90
2018-03-29T06:28:31.192Z,87.30
2018-03-29T06:31:00.062Z,87.50
2018-03-29T06:33:28.200Z,87.50
2018-03-29T06:35:56.367Z,86.50
2018-03-29T06:38:24.499Z,87.40
2018-03-29T06:40:53.434Z,88.60
2018-03-29T06:43:21.582Z,88.60
2018-03-29T06:45:49.717Z,87.40
2018-03-29T06:48:17.835Z,86.80
2018-03-29T06:50:45.952Z,87.20
2018-03-29T06:53:14.080Z,87.20
2018-03-29T06:55:42.277Z,86.50
2018-03-29T06:58:10.408Z,88.40
2018-03-29T07:00:38.710Z,86.90
2018-03-29T07:03:06.889Z,86.50
2018-03-29T07:05:35.014Z,86.20
2018-03-29T07:08:03.137Z,86.00
2018-03-29T07:10:31.258Z,86.00
2018-03-29T07:12:59.396Z,85.70
2018-03-29T07:15:27.499Z,85.10
2018-03-29T07:17:55.627Z,84.10
2018-03-29T07:20:23.746Z,85.30
2018-03-29T07:22:51.870Z,84.40
2018-03-29T07:25:19.981Z,84.40
2018-03-29T07:27:48.103Z,80.70
2018-03-29T07:30:16.206Z,79.00
2018-03-29T07:32:44.348Z,79.50
2018-03-29T07:35:12.448Z,80.00
2018-03-29T07:37:40.600Z,79.00
2018-03-29T07:40:08.968Z,78.20
2018-03-29T07:42:38.048Z,67.00
2018-03-29T07:45:06.964Z,62.50
2018-03-29T07:47:35.116Z,62.50
2018-03-29T07:50:03.993Z,60.10
2018-03-29T07:52:32.896Z,62.50
2018-03-29T07:55:01.762Z,60.60
2018-03-29T07:57:29.912Z,60.60
2018-03-29T07:59:58.023Z,58.70
2018-03-29T08:02:26.941Z,59.90
2018-03-29T08:04:55.089Z,59.90
2018-03-29T08:07:24.266Z,63.60
2018-03-29T08:09:52.373Z,63.60
2018-03-29T08:12:20.506Z,64.40
2018-03-29T08:14:48.623Z,65.20
2018-03-29T08:17:16.762Z,58.60
2018-03-29T08:19:44.870Z,56.60
2018-03-29T08:22:13.012Z,56.30
2018-03-29T08:24:41.131Z,58.20
2018-03-29T08:27:09.260Z,60.60
2018-03-29T08:29:37.371Z,63.00
2018-03-29T08:32:05.516Z,63.80
2018-03-29T08:34:34.414Z,66.60
2018-03-29T08:37:03.317Z,66.80
2018-03-29T08:39:31.428Z,66.80
2018-03-29T08:41:59.550Z,67.40
2018-03-29T08:44:28.422Z,61.00
2018-03-29T08:46:56.558Z,61.00
2018-03-29T08:49:24.667Z,70.40
2018-03-29T08:51:52.808Z,55.20
2018-03-29T08:54:24.851Z,55.30
2018-03-29T08:56:53.000Z,50.10
2018-03-29T08:59:21.876Z,51.80
2018-03-29T09:01:50.780Z,52.50
2018-03-29T09:04:19.683Z,49.00
2018-03-29T09:06:47.792Z,47.20
2018-03-29T09:09:15.943Z,48.60
2018-03-29T09:11:44.099Z,48.10
2018-03-29T09:14:12.226Z,49.90
2018-03-29T09:16:40.364Z,50.30
2018-03-29T09:19:08.500Z,53.30
2018-03-29T09:21:36.603Z,55.80
2018-03-29T09:24:04.746Z,58.30
2018-03-29T09:26:33.636Z,59.50
2018-03-29T09:29:01.776Z,59.50
2018-03-29T09:31:29.878Z,60.90
2018-03-29T09:33:58.022Z,59.90
2018-03-29T09:36:26.179Z,58.70
2018-03-29T09:38:54.288Z,56.30
2018-03-29T09:41:22.412Z,58.10
2018-03-29T09:43:50.546Z,60.70
2018-03-29T09:46:18.664Z,60.00
2018-03-29T09:48:46.836Z,61.00
2018-03-29T09:51:14.956Z,57.50
2018-03-29T09:53:43.129Z,56.10
2018-03-29T09:56:11.234Z,52.90
2018-03-29T09:58:39.381Z,50.30
2018-03-29T10:01:07.487Z,48.50
2018-03-29T10:03:39.505Z,44.30
2018-03-29T10:06:13.294Z,46.90
2018-03-29T10:08:41.441Z,45.80
2018-03-29T10:11:09.554Z,44.40
2018-03-29T10:13:37.705Z,45.60
2018-03-29T10:16:05.833Z,43.10
2018-03-29T10:18:34.741Z,43.60
2018-03-29T10:21:02.856Z,43.50
2018-03-29T10:23:30.994Z,43.30
2018-03-29T10:25:59.112Z,44.70
2018-03-29T10:28:27.243Z,44.40
2018-03-29T10:30:55.395Z,46.20
2018-03-29T10:33:24.300Z,49.80
2018-03-29T10:35:52.422Z,49.80
2018-03-29T10:38:20.546Z,49.70
2018-03-29T10:40:48.663Z,50.30
2018-03-29T10:43:16.801Z,50.60
2018-03-29T10:45:44.912Z,50.80
2018-03-29T10:48:13.052Z,50.00
2018-03-29T10:50:42.014Z,53.50
2018-03-29T10:53:10.924Z,54.20
2018-03-29T10:55:39.050Z,54.20
2018-03-29T10:58:07.193Z,54.10
2018-03-29T11:00:35.305Z,54.30
2018-03-29T11:03:03.446Z,54.10
2018-03-29T11:05:31.588Z,56.40
2018-03-29T11:07:59.764Z,57.40
2018-03-29T11:10:27.875Z,55.70
2018-03-29T11:12:55.992Z,57.40
2018-03-29T11:15:24.910Z,57.30
2018-03-29T11:17:53.020Z,57.30
2018-03-29T11:20:21.160Z,57.50
2018-03-29T11:22:49.269Z,58.80
2018-03-29T11:25:17.429Z,60.70
2018-03-29T11:27:45.553Z,61.10
2018-03-29T11:30:14.460Z,60.70
2018-03-29T11:32:42.585Z,60.70
2018-03-29T11:35:10.790Z,60.60
2018-03-29T11:37:39.668Z,60.60
2018-03-29T11:40:07.809Z,60.50
2018-03-29T11:42:35.924Z,58.40
2018-03-29T11:45:04.833Z,60.30
2018-03-29T11:47:32.952Z,60.30
2018-03-29T11:50:01.088Z,61.50
2018-03-29T11:52:29.254Z,59.90
2018-03-29T11:54:58.154Z,59.90
2018-03-29T11:57:26.265Z,60.00
2018-03-29T11:59:54.409Z,60.40
2018-03-29T12:02:22.530Z,59.30
2018-03-29T12:04:50.669Z,57.80
2018-03-29T12:07:20.038Z,58.30
2018-03-29T12:09:48.945Z,61.50
2018-03-29T12:12:17.084Z,61.50
2018-03-29T12:14:45.237Z,61.00
2018-03-29T12:17:13.356Z,60.50
2018-03-29T12:19:41.495Z,61.90
2018-03-29T12:22:09.617Z,62.00
2018-03-29T12:24:37.757Z,60.20
2018-03-29T12:27:05.855Z,63.70
2018-03-29T12:29:33.989Z,68.60
2018-03-29T12:32:02.100Z,74.50
2018-03-29T12:34:30.226Z,76.70
2018-03-29T12:36:58.345Z,77.70
2018-03-29T12:39:26.486Z,78.50
2018-03-29T12:41:54.595Z,79.10
2018-03-29T12:44:22.728Z,78.60
2018-03-29T12:46:50.851Z,78.70
2018-03-29T12:49:18.975Z,77.60
2018-03-29T12:51:47.092Z,75.80
2018-03-29T12:54:15.270Z,76.60
2018-03-29T12:56:55.182Z,76.60
2018-03-29T12:59:24.096Z,77.90
2018-03-29T13:01:52.198Z,77.20
2018-03-29T13:04:20.340Z,76.10
2018-03-29T13:06:48.455Z,75.10
2018-03-29T13:09:16.592Z,77.30
2018-03-29T13:11:44.712Z,75.40
2018-03-29T13:14:12.843Z,76.10
2018-03-29T13:16:40.952Z,76.90
2018-03-29T13:19:09.092Z,76.60
2018-03-29T13:21:37.208Z,75.10
2018-03-29T13:24:05.338Z,78.00
2018-03-29T13:26:33.468Z,76.30
2018-03-29T13:29:01.607Z,75.90
2018-03-29T13:31:29.722Z,74.90
2018-03-29T13:33:57.853Z,74.80
2018-03-29T13:36:25.970Z,74.50
2018-03-29T13:38:54.862Z,71.50
2018-03-29T13:41:23.750Z,74.10
2018-03-29T13:43:51.880Z,74.10
2018-03-29T13:46:19.999Z,70.00
2018-03-29T13:48:48.881Z,68.30
2018-03-29T13:51:17.025Z,68.30
2018-03-29T13:53:45.143Z,69.10
2018-03-29T13:56:14.049Z,67.60
2018-03-29T13:58:42.161Z,67.60
2018-03-29T14:01:10.308Z,67.60
2018-03-29T14:03:38.424Z,71.10
2018-03-29T14:06:06.565Z,70.10
2018-03-29T14:08:34.684Z,69.60
2018-03-29T14:11:02.833Z,69.80
2018-03-29T14:13:30.945Z,68.50
2018-03-29T14:15:59.852Z,69.60
2018-03-29T14:18:27.959Z,69.60
2018-03-29T14:20:56.135Z,67.70
2018-03-29T14:23:24.253Z,69.30
2018-03-29T14:25:53.156Z,66.80
2018-03-29T14:28:22.037Z,63.60
2018-03-29T14:30:50.945Z,64.10
2018-03-29T14:33:19.071Z,64.10
2018-03-29T14:35:47.228Z,65.20
2018-03-29T14:38:15.344Z,66.90
2018-03-29T14:40:43.505Z,65.20
2018-03-29T14:43:12.405Z,68.60
2018-03-29T14:45:40.577Z,68.60
2018-03-29T14:48:08.680Z,66.70
2018-03-29T14:50:37.590Z,67.10
2018-03-29T14:53:05.704Z,67.10
2018-03-29T14:55:34.660Z,68.90
2018-03-29T14:58:03.242Z,67.40
2018-03-29T15:00:31.403Z,68.20
2018-03-29T15:03:00.283Z,66.00
2018-03-29T15:05:29.192Z,65.40
2018-03-29T15:07:57.310Z,65.30
2018-03-29T15:10:25.456Z,65.70
2018-03-29T15:12:53.569Z,67.40
2018-03-29T15:15:21.728Z,67.50
2018-03-29T15:17:49.837Z,65.70
2018-03-29T15:20:18.736Z,66.80
2018-03-29T15:22:47.623Z,68.80
2018-03-29T15:25:16.515Z,68.50
2018-03-29T15:27:45.415Z,69.00
2018-03-29T15:30:14.320Z,67.90
2018-03-29T15:32:42.426Z,67.90
2018-03-29T15:35:10.577Z,67.60
2018-03-29T15:37:38.682Z,67.40
2018-03-29T15:40:06.955Z,66.40
2018-03-29T15:42:35.244Z,66.90
2018-03-29T15:45:03.580Z,64.80
2018-03-29T15:47:31.690Z,64.70
2018-03-29T15:49:59.836Z,93.50
2018-03-29T15:52:27.969Z,63.20
2018-03-29T15:54:56.881Z,65.00
2018-03-29T15:57:25.448Z,64.90
2018-03-29T15:59:53.710Z,63.00
2018-03-29T16:02:21.820Z,63.40
2018-03-29T16:04:50.498Z,62.90
2018-03-29T16:07:18.616Z,63.90
2018-03-29T16:09:46.761Z,62.50
2018-03-29T16:12:15.492Z,65.40
2018-03-29T16:14:43.633Z,60.80
2018-03-29T16:17:11.761Z,60.40
2018-03-29T16:19:41.063Z,61.80
2018-03-29T16:22:09.967Z,62.80
2018-03-29T16:24:38.093Z,62.70
2018-03-29T16:27:06.313Z,63.80
2018-03-29T16:29:34.437Z,65.70
2018-03-29T16:32:02.870Z,65.30
2018-03-29T16:34:31.744Z,64.20
2018-03-29T16:37:00.652Z,62.80
2018-03-29T16:39:28.764Z,62.80
2018-03-29T16:41:56.902Z,64.00
2018-03-29T16:44:25.788Z,64.10
2018-03-29T16:46:54.695Z,63.80
2018-03-29T16:49:22.813Z,63.80
2018-03-29T16:51:50.948Z,65.10
2018-03-29T16:54:19.056Z,65.20
2018-03-29T16:56:47.188Z,66.30
2018-03-29T16:59:15.349Z,67.90
2018-03-29T17:01:44.247Z,73.20
2018-03-29T17:04:12.352Z,73.20
2018-03-29T17:06:40.467Z,74.00
2018-03-29T17:09:09.345Z,76.30
2018-03-29T17:11:37.486Z,76.30
2018-03-29T17:14:05.592Z,75.90
2018-03-29T17:16:33.734Z,76.10
2018-03-29T17:19:01.850Z,75.80
2018-03-29T17:21:30.764Z,76.90
2018-03-29T17:23:58.872Z,76.90
2018-03-29T17:26:27.016Z,77.30
2018-03-29T17:28:55.125Z,78.90
2018-03-29T17:31:23.282Z,79.20
2018-03-29T17:33:51.404Z,79.50
2018-03-29T17:36:19.535Z,79.80
2018-03-29T17:38:47.737Z,80.50
2018-03-29T17:41:16.885Z,80.10
2018-03-29T17:43:45.742Z,80.50
2018-03-29T17:46:14.640Z,82.90
2018-03-29T17:48:45.104Z,84.30
2018-03-29T17:51:13.573Z,84.30
2018-03-29T17:53:41.681Z,84.80
2018-03-29T17:56:09.808Z,85.20
2018-03-29T17:58:38.693Z,86.10
2018-03-29T18:01:07.584Z,87.10
2018-03-29T18:03:37.133Z,86.70
2018-03-29T18:06:05.304Z,86.70
2018-03-29T18:08:33.430Z,87.30
2018-03-29T18:11:02.329Z,87.30
2018-03-29T18:13:31.660Z,87.30
2018-03-29T18:16:01.039Z,86.60
2018-03-29T18:18:31.222Z,86.20
2018-03-29T18:20:59.355Z,86.20
2018-03-29T18:23:27.491Z,87.10
2018-03-29T18:25:55.610Z,88.10
2018-03-29T18:28:23.723Z,88.50
2018-03-29T18:30:51.872Z,89.10
2018-03-29T18:33:19.981Z,89.00
2018-03-29T18:35:48.121Z,87.90
2018-03-29T18:38:16.236Z,87.40
2018-03-29T18:40:45.141Z,86.40
2018-03-29T18:43:14.015Z,86.40
2018-03-29T18:45:42.148Z,86.40
2018-03-29T18:48:10.259Z,85.80
2018-03-29T18:50:38.383Z,85.80
2018-03-29T18:53:06.500Z,85.40
2018-03-29T18:55:34.637Z,85.70
2018-03-29T18:58:02.804Z,87.00
2018-03-29T19:00:30.915Z,87.80
2018-03-29T19:02:59.048Z,87.50
2018-03-29T19:05:27.165Z,86.90
2018-03-29T19:07:55.289Z,87.20
2018-03-29T19:10:23.411Z,86.70
2018-03-29T19:12:51.543Z,86.70
2018-03-29T19:15:19.646Z,86.50
2018-03-29T19:17:47.776Z,86.10
2018-03-29T19:20:15.874Z,86.60
2018-03-29T19:22:44.004Z,86.50
2018-03-29T19:25:12.884Z,87.70
2018-03-29T19:27:41.791Z,88.30
2018-03-29T19:30:09.924Z,88.20
2018-03-29T19:32:38.047Z,88.70
2018-03-29T19:35:06.151Z,88.00
2018-03-29T19:37:34.274Z,87.40
2018-03-29T19:40:03.148Z,88.50
2018-03-29T19:42:31.288Z,87.80
2018-03-29T19:44:59.401Z,87.80
2018-03-29T19:47:27.541Z,87.60
2018-03-29T19:49:55.662Z,87.30
2018-03-29T19:52:24.551Z,87.20
2018-03-29T19:54:53.525Z,87.80
2018-03-29T19:57:21.656Z,87.80
2018-03-29T19:59:49.781Z,87.70
2018-03-29T20:02:18.681Z,86.80
2018-03-29T20:04:47.562Z,87.60
2018-03-29T20:07:15.687Z,87.60
2018-03-29T20:09:43.806Z,87.60
2018-03-29T20:12:11.936Z,87.70
2018-03-29T20:14:40.039Z,88.70
2018-03-29T20:17:08.908Z,89.30
2018-03-29T20:19:37.021Z,90.00
2018-03-29T20:22:05.977Z,88.70
2018-03-29T20:24:34.080Z,88.70
2018-03-29T20:27:02.229Z,88.40
2018-03-29T20:29:30.368Z,88.20
2018-03-29T20:31:58.557Z,90.40
2018-03-29T20:34:26.734Z,91.50
2018-03-29T20:36:54.946Z,91.40
2018-03-29T20:39:23.054Z,91.10
2018-03-29T20:41:51.186Z,91.10
2018-03-29T20:44:19.296Z,90.70
2018-03-29T20:46:48.419Z,90.50
2018-03-29T20:49:16.527Z,90.40
2018-03-29T20:51:44.668Z,90.50
2018-03-29T20:54:12.840Z,91.10
2018-03-29T20:56:40.979Z,91.40
2018-03-29T20:59:09.106Z,91.20
2018-03-29T21:01:37.236Z,90.90
2018-03-29T21:04:05.403Z,91.00
2018-03-29T21:06:33.566Z,90.80
2018-03-29T21:09:01.842Z,90.50
2018-03-29T21:11:30.731Z,90.30
2018-03-29T21:13:59.731Z,90.40
2018-03-29T21:16:28.590Z,90.30
2018-03-29T21:18:56.733Z,90.30
2018-03-29T21:21:24.857Z,90.40
2018-03-29T21:23:53.760Z,91.00
2018-03-29T21:26:23.657Z,91.00
2018-03-29T21:28:53.132Z,91.00
2018-03-29T21:31:21.483Z,90.70
2018-03-29T21:33:49.599Z,90.20
2018-03-29T21:36:17.860Z,89.90
2018-03-29T21:38:46.801Z,89.50
2018-03-29T21:41:15.666Z,89.70
2018-03-29T21:43:43.800Z,89.70
2018-03-29T21:46:11.947Z,90.30
2018-03-29T21:48:40.312Z,90.70
2018-03-29T21:51:08.473Z,90.80
2018-03-29T21:53:37.359Z,90.50
2018-03-29T21:56:05.479Z,90.50
2018-03-29T21:58:33.610Z,91.10
2018-03-29T22:01:01.733Z,91.00
2018-03-29T22:03:29.861Z,90.60
2018-03-29T22:05:58.768Z,90.30
2018-03-29T22:08:26.912Z,90.30
2018-03-29T22:10:55.102Z,90.60
2018-03-29T22:13:23.259Z,90.70
2018-03-29T22:15:51.367Z,90.80
2018-03-29T22:18:19.504Z,90.70
2018-03-29T22:20:47.618Z,90.50
2018-03-29T22:23:16.517Z,90.20
2018-03-29T22:25:44.647Z,90.20
2018-03-29T22:28:12.775Z,90.10
2018-03-29T22:30:40.885Z,90.30
2018-03-29T22:33:09.058Z,90.90
2018-03-29T22:35:37.159Z,91.30
2018-03-29T22:38:06.055Z,91.30
2018-03-29T22:40:34.926Z,91.20
2018-03-29T22:43:03.067Z,91.20
2018-03-29T22:45:31.185Z,90.80
2018-03-29T22:47:59.330Z,90.60
2018-03-29T22:50:27.431Z,90.50
2018-03-29T22:52:56.332Z,90.40
2018-03-29T22:55:25.212Z,90.10
2018-03-29T22:57:53.345Z,90.10
2018-03-29T23:00:27.864Z,89.80
2018-03-29T23:02:55.999Z,90.10
2018-03-29T23:05:24.113Z,90.20
2018-03-29T23:07:52.250Z,90.20
2018-03-29T23:10:20.346Z,90.00
2018-03-29T23:12:48.485Z,90.50
2018-03-29T23:15:17.370Z,90.90
2018-03-29T23:17:46.277Z,90.70
2018-03-29T23:20:14.392Z,90.70
2018-03-29T23:22:42.700Z,90.50
2018-03-29T23:25:10.823Z,90.60
2018-03-29T23:27:38.960Z,90.50
2018-03-29T23:30:07.831Z,90.40
2018-03-29T23:32:35.951Z,90.30
2018-03-29T23:35:05.792Z,90.10
2018-03-29T23:37:33.932Z,90.00
2018-03-29T23:40:02.046Z,90.10
2018-03-29T23:42:30.177Z,90.00
2018-03-29T23:44:59.242Z,90.10
2018-03-29T23:47:27.376Z,90.10
2018-03-29T23:49:55.501Z,90.50
2018-03-29T23:52:24.395Z,90.90
2018-03-29T23:54:53.263Z,91.70
2018-03-29T23:57:21.402Z,91.70
2018-03-29T23:59:49.520Z,92.00
